Beaumerit — PBMF — position and weather

sailwx.info

Track history (hours):
 
Tides and Currents Weather Stations Pressure Air Temp Water Temp Dewpoint Dewpoint Depression Visibility Wind Speed Wind Dir Waves Ship Positions

Beaumerit

Last reported at 2018-Jun-20 23:01 UTC. Time now 2018-Jun-23 14:07 UTC.
Position N 39°34' W 009°50'.

Length 90 m; draft 6.3 m.

MMSI: 245615000.

Date/timePositionNaut miles runAvg speedWind from/ knotsBaromVisibWave heightAir tempDewpointWater temp
2018-Jun-20 23:01N 39°34' W 009°50'110.5
2018-Jun-20 22:53N 39°33' W 009°50'410.6
2018-Jun-20 22:31N 39°29' W 009°50'610.6
2018-Jun-20 21:58N 39°23' W 009°50'510.6
2018-Jun-20 21:30N 39°18' W 009°50'510.8
2018-Jun-20 21:01N 39°13' W 009°50'510.6
2018-Jun-20 20:30N 39°07' W 009°50'510.2
2018-Jun-20 20:00N 39°02' W 009°50'510.5
2018-Jun-20 19:31N 38°57' W 009°51'510.4
2018-Jun-20 19:01N 38°52' W 009°50'510.5
2018-Jun-20 18:30N 38°47' W 009°50'510.1
2018-Jun-20 18:01N 38°42' W 009°50'510.1
2018-Jun-20 17:31N 38°37' W 009°49'510.0
2018-Jun-20 17:00N 38°32' W 009°47'5 9.8
2018-Jun-20 16:30N 38°27' W 009°46'5 9.5
2018-Jun-20 16:00N 38°22' W 009°44'5 9.5
2018-Jun-20 15:30N 38°18' W 009°43'5 9.5
2018-Jun-20 14:57N 38°13' W 009°41'4 9.8
2018-Jun-20 14:30N 38°08' W 009°40'610.4
2018-Jun-20 13:58N 38°03' W 009°38'510.4
2018-Jun-20 13:30N 37°58' W 009°37'610.8
2018-Jun-20 12:59N 37°53' W 009°35'510.7
2018-Jun-20 12:30N 37°48' W 009°34'910.6
2018-Jun-20 11:40N 37°39' W 009°31'  
2018-Jun-16 00:38N 35°60' W 005°08'214.6
2018-Jun-16 00:29N 35°59' W 005°11'714.8
2018-Jun-16 00:00N 35°58' W 005°20'714.0
2018-Jun-15 23:30N 35°57' W 005°28'  
2018-Jun-12 13:25N 38°56' W 010°04'511.3
2018-Jun-12 13:00N 39°01' W 010°04'611.3
2018-Jun-12 12:30N 39°06' W 010°04'  
Track history (hours):
 
Tides and Currents Weather Stations Pressure Air Temp Water Temp Dewpoint Dewpoint Depression Visibility Wind Speed Wind Dir Waves Ship Positions

Beaumerit

Last reported at 2018-Jun-20 23:01 UTC. Time now 2018-Jun-23 14:07 UTC.
Position N 39°34' W 009°50'.

Length 90 m; draft 6.3 m.

MMSI: 245615000.

Date/timePositionNaut miles runAvg speedWind from/ knotsBaromVisibWave heightAir tempDewpointWater temp
2018-Jun-20 23:01N 39°34' W 009°50'110.5
2018-Jun-20 22:53N 39°33' W 009°50'410.6
2018-Jun-20 22:31N 39°29' W 009°50'610.6
2018-Jun-20 21:58N 39°23' W 009°50'510.6
2018-Jun-20 21:30N 39°18' W 009°50'510.8
2018-Jun-20 21:01N 39°13' W 009°50'510.6
2018-Jun-20 20:30N 39°07' W 009°50'510.2
2018-Jun-20 20:00N 39°02' W 009°50'510.5
2018-Jun-20 19:31N 38°57' W 009°51'510.4
2018-Jun-20 19:01N 38°52' W 009°50'510.5
2018-Jun-20 18:30N 38°47' W 009°50'510.1
2018-Jun-20 18:01N 38°42' W 009°50'510.1
2018-Jun-20 17:31N 38°37' W 009°49'510.0
2018-Jun-20 17:00N 38°32' W 009°47'5 9.8
2018-Jun-20 16:30N 38°27' W 009°46'5 9.5
2018-Jun-20 16:00N 38°22' W 009°44'5 9.5
2018-Jun-20 15:30N 38°18' W 009°43'5 9.5
2018-Jun-20 14:57N 38°13' W 009°41'4 9.8
2018-Jun-20 14:30N 38°08' W 009°40'610.4
2018-Jun-20 13:58N 38°03' W 009°38'510.4
2018-Jun-20 13:30N 37°58' W 009°37'610.8
2018-Jun-20 12:59N 37°53' W 009°35'510.7
2018-Jun-20 12:30N 37°48' W 009°34'910.6
2018-Jun-20 11:40N 37°39' W 009°31'  
2018-Jun-16 00:38N 35°60' W 005°08'214.6
2018-Jun-16 00:29N 35°59' W 005°11'714.8
2018-Jun-16 00:00N 35°58' W 005°20'714.0
2018-Jun-15 23:30N 35°57' W 005°28'  
2018-Jun-12 13:25N 38°56' W 010°04'511.3
2018-Jun-12 13:00N 39°01' W 010°04'611.3
2018-Jun-12 12:30N 39°06' W 010°04'  

Dump ship's entire track history